Time;durP1;ratioP1;P1;durP2;ratioP2;P2;SDS_P1;SDS_P2;PMS_P1;PMS_P2;Temp;Humidity;BMP_temperature;BMP_pressure;BME280_temperature;BME280_humidity;BME280_pressure;Samples;Min_cycle;Max_cycle;Signal;HPM_P1;HPM_P2
2024/02/03 00:00:09;;;;;;;16.98;10.88;;;;;;;0.37;100.00;98107.53;4999047;28;20111;-67
2024/02/03 00:02:35;;;;;;;20.73;11.32;;;;;;;0.46;100.00;98112.41;5023593;28;20047;-68
2024/02/03 00:05:00;;;;;;;18.20;10.93;;;;;;;0.32;100.00;98112.09;5033126;28;20400;-66
2024/02/03 00:07:26;;;;;;;22.95;13.10;;;;;;;0.21;100.00;98103.16;5033750;28;20086;-66
2024/02/03 00:09:51;;;;;;;24.65;14.40;;;;;;;0.15;100.00;98102.34;5045208;28;20752;-68
2024/02/03 00:12:25;;;;;;;25.20;14.20;;;;;;;0.11;100.00;98105.81;5016358;28;20045;-68
2024/02/03 00:14:51;;;;;;;24.48;13.98;;;;;;;0.11;100.00;98101.25;5027291;28;20080;-67
2024/02/03 00:17:16;;;;;;;25.33;14.80;;;;;;;0.19;100.00;98097.25;4996150;28;20100;-68
2024/02/03 00:19:41;;;;;;;25.38;15.30;;;;;;;0.22;100.00;98096.72;5018826;28;20045;-69
2024/02/03 00:22:07;;;;;;;32.08;16.08;;;;;;;0.26;100.00;98094.31;5030245;28;20052;-67
2024/02/03 00:24:32;;;;;;;31.15;15.60;;;;;;;0.26;100.00;98095.09;5022310;28;20049;-67
2024/02/03 00:26:57;;;;;;;20.95;12.80;;;;;;;0.18;100.00;98099.13;5024273;28;20085;-68
2024/02/03 00:29:23;;;;;;;19.88;11.75;;;;;;;0.16;100.00;98098.59;5025710;28;20057;-68
2024/02/03 00:31:48;;;;;;;27.05;16.90;;;;;;;0.14;100.00;98097.22;5028197;28;20108;-67
2024/02/03 00:34:13;;;;;;;22.23;12.98;;;;;;;0.10;100.00;98099.63;5026169;28;20053;-67
2024/02/03 00:36:39;;;;;;;26.35;13.93;;;;;;;0.10;100.00;98096.94;5017115;28;20054;-67
2024/02/03 00:39:05;;;;;;;20.35;12.75;;;;;;;0.17;100.00;98107.47;5030696;28;20045;-66
2024/02/03 00:41:30;;;;;;;21.55;12.18;;;;;;;0.27;100.00;98104.00;5036233;28;20045;-69
2024/02/03 00:43:56;;;;;;;18.63;11.70;;;;;;;0.25;100.00;98098.88;5024169;28;20143;-69
2024/02/03 00:46:21;;;;;;;21.23;12.68;;;;;;;0.11;100.00;98093.19;5015992;28;20538;-67
2024/02/03 00:48:46;;;;;;;21.08;12.32;;;;;;;0.05;100.00;98083.44;5025108;28;20686;-69
2024/02/03 00:51:12;;;;;;;24.30;12.90;;;;;;;0.10;100.00;98082.66;5013870;28;20050;-69
2024/02/03 00:53:43;;;;;;;22.77;13.00;;;;;;;0.12;100.00;98084.00;5026849;28;20042;-70
2024/02/03 00:56:10;;;;;;;20.90;13.82;;;;;;;0.13;100.00;98077.56;5021509;28;20462;-69
2024/02/03 00:58:35;;;;;;;26.52;12.27;;;;;;;0.11;100.00;98081.56;5018728;28;20671;-70
2024/02/03 01:01:01;;;;;;;19.88;12.05;;;;;;;0.08;100.00;98079.44;5025733;28;20048;-68
2024/02/03 01:03:26;;;;;;;25.30;13.35;;;;;;;0.07;100.00;98070.50;5013790;28;20132;-67
2024/02/03 01:05:52;;;;;;;20.55;11.30;;;;;;;-0.03;100.00;98068.59;5021181;28;20064;-69
2024/02/03 01:08:18;;;;;;;19.83;11.80;;;;;;;-0.12;100.00;98062.13;5032151;28;20056;-69
2024/02/03 01:10:43;;;;;;;20.85;12.05;;;;;;;-0.11;100.00;98066.44;5014948;28;20045;-67
2024/02/03 01:13:09;;;;;;;20.90;11.45;;;;;;;0.10;100.00;98069.19;5017762;28;20037;-67
2024/02/03 01:15:34;;;;;;;24.65;14.65;;;;;;;0.18;100.00;98069.50;5030203;28;20045;-67
2024/02/03 01:18:00;;;;;;;22.20;12.38;;;;;;;0.17;100.00;98072.44;5022742;28;20437;-68
2024/02/03 01:20:25;;;;;;;21.83;11.93;;;;;;;0.07;100.00;98062.44;5026284;28;20054;-69
2024/02/03 01:22:50;;;;;;;20.80;12.38;;;;;;;-0.04;100.00;98074.25;5029347;28;20052;-67
2024/02/03 01:25:16;;;;;;;19.20;11.93;;;;;;;-0.16;100.00;98068.28;4995934;28;20071;-67
2024/02/03 01:27:41;;;;;;;22.58;11.60;;;;;;;-0.16;100.00;98077.19;5056027;22;20053;-72
2024/02/03 01:30:08;;;;;;;18.38;11.65;;;;;;;-0.09;100.00;98077.75;5029630;28;20523;-71
2024/02/03 01:32:33;;;;;;;26.52;10.95;;;;;;;-0.02;100.00;98067.53;5026612;28;20069;-71
2024/02/03 01:34:58;;;;;;;17.65;10.63;;;;;;;0.08;100.00;98068.66;5004928;28;20143;-72
2024/02/03 01:37:25;;;;;;;21.25;10.35;;;;;;;0.08;100.00;98065.97;5004434;28;20113;-73
2024/02/03 01:39:51;;;;;;;15.00;9.82;;;;;;;0.06;100.00;98060.03;5014978;28;20041;-73
2024/02/03 01:42:16;;;;;;;17.45;10.55;;;;;;;-0.07;100.00;98053.25;4998978;28;20056;-72
2024/02/03 01:44:42;;;;;;;17.13;10.95;;;;;;;-0.08;100.00;98054.31;5018840;28;20057;-74
2024/02/03 01:47:08;;;;;;;19.30;10.98;;;;;;;-0.05;100.00;98053.81;5004934;28;20084;-72
2024/02/03 01:49:34;;;;;;;17.73;10.65;;;;;;;-0.10;100.00;98043.00;5004989;28;20046;-71
2024/02/03 01:52:00;;;;;;;18.05;10.48;;;;;;;-0.02;100.00;98040.63;5016117;28;20412;-72
2024/02/03 01:54:27;;;;;;;21.05;12.50;;;;;;;-0.08;100.00;98038.97;5007499;28;20049;-73
2024/02/03 01:56:57;;;;;;;19.88;12.27;;;;;;;-0.21;100.00;98031.38;5002514;28;20042;-73
2024/02/03 01:59:24;;;;;;;26.20;13.38;;;;;;;-0.28;100.00;98036.19;4980931;28;20050;-73
2024/02/03 02:01:50;;;;;;;27.10;13.80;;;;;;;-0.31;100.00;98032.13;4988058;28;20424;-72
2024/02/03 02:04:16;;;;;;;24.60;13.38;;;;;;;-0.34;100.00;98019.22;5010126;28;20439;-73
2024/02/03 02:06:41;;;;;;;20.45;11.57;;;;;;;-0.35;100.00;98022.97;5014223;28;20041;-72
2024/02/03 02:09:06;;;;;;;23.52;12.57;;;;;;;-0.44;100.00;98025.34;4980917;28;20104;-71
2024/02/03 02:11:32;;;;;;;22.42;12.90;;;;;;;-0.36;100.00;98023.22;5011207;28;20104;-72
2024/02/03 02:13:58;;;;;;;18.88;11.05;;;;;;;-0.35;100.00;98020.28;5015612;28;20486;-72
2024/02/03 02:16:24;;;;;;;21.35;12.70;;;;;;;-0.35;100.00;98024.88;5005187;28;20094;-72
2024/02/03 02:18:50;;;;;;;23.92;11.95;;;;;;;-0.19;100.00;98021.16;5023510;28;20045;-72
2024/02/03 02:21:16;;;;;;;19.55;11.65;;;;;;;-0.13;100.00;98022.78;5012784;28;20668;-72
2024/02/03 02:23:42;;;;;;;20.40;11.55;;;;;;;-0.18;100.00;98012.00;5003303;28;20495;-72
2024/02/03 02:26:07;;;;;;;18.40;11.52;;;;;;;-0.25;100.00;98008.75;5009324;28;20684;-72
2024/02/03 02:28:33;;;;;;;19.60;11.70;;;;;;;-0.33;100.00;98015.44;5018081;28;20049;-72
2024/02/03 02:30:59;;;;;;;21.33;11.60;;;;;;;-0.52;100.00;98006.19;5016305;28;20561;-73
2024/02/03 02:33:24;;;;;;;25.33;11.77;;;;;;;-0.34;100.00;98011.16;4996149;28;20054;-74
2024/02/03 02:35:50;;;;;;;21.60;11.77;;;;;;;-0.58;100.00;98002.69;5014149;28;20044;-73
2024/02/03 02:38:18;;;;;;;20.10;11.52;;;;;;;-0.48;100.00;98001.94;5000249;28;20059;-74
2024/02/03 02:40:44;;;;;;;23.75;12.30;;;;;;;-0.54;100.00;98005.66;4978451;28;20049;-74
2024/02/03 02:43:09;;;;;;;19.73;11.32;;;;;;;-0.57;100.00;98004.31;4989284;28;20046;-75
2024/02/03 02:45:34;;;;;;;19.65;11.38;;;;;;;-0.56;100.00;98002.44;5013239;28;20037;-74
2024/02/03 02:48:00;;;;;;;23.13;12.35;;;;;;;-0.44;100.00;98003.03;4992720;28;20057;-74
2024/02/03 02:50:25;;;;;;;30.80;13.52;;;;;;;-0.56;100.00;97999.72;5021904;28;20049;-73
2024/02/03 02:52:50;;;;;;;23.88;12.70;;;;;;;-0.67;100.00;97990.81;4981153;28;20052;-73
2024/02/03 02:55:16;;;;;;;27.65;13.73;;;;;;;-0.78;100.00;97998.81;4999472;28;20054;-73
2024/02/03 02:57:42;;;;;;;27.02;13.15;;;;;;;-0.84;100.00;97989.09;4999816;28;20496;-74
2024/02/03 03:00:09;;;;;;;21.95;11.93;;;;;;;-0.85;100.00;97990.16;4997179;28;20100;-72
2024/02/03 03:02:35;;;;;;;25.75;13.77;;;;;;;-0.79;100.00;97985.66;4993241;28;20037;-72
2024/02/03 03:05:00;;;;;;;25.58;13.80;;;;;;;-0.70;100.00;97985.94;5007188;28;20046;-73
2024/02/03 03:07:26;;;;;;;28.17;14.73;;;;;;;-0.87;100.00;97980.75;5007709;28;20046;-73
2024/02/03 03:09:51;;;;;;;23.83;13.35;;;;;;;-0.78;100.00;97979.97;4993097;28;20069;-72
2024/02/03 03:12:16;;;;;;;29.55;13.82;;;;;;;-0.77;100.00;97981.63;5001603;28;20048;-73
2024/02/03 03:14:42;;;;;;;37.08;15.60;;;;;;;-0.56;100.00;97972.81;5007591;28;20081;-73
2024/02/03 03:17:07;;;;;;;30.60;15.63;;;;;;;-0.57;100.00;97973.91;5005380;28;20046;-72
2024/02/03 03:19:39;;;;;;;35.13;13.55;;;;;;;-0.44;100.00;97971.53;4969539;28;20612;-72
2024/02/03 03:22:05;;;;;;;24.35;13.70;;;;;;;-0.18;100.00;97966.25;4996017;28;20050;-71
2024/02/03 03:24:31;;;;;;;25.42;13.00;;;;;;;0.00;100.00;97954.16;5001127;28;20049;-73
2024/02/03 03:26:56;;;;;;;31.45;14.95;;;;;;;0.24;100.00;97978.69;5000564;28;20053;-73
2024/02/03 03:29:22;;;;;;;23.35;13.48;;;;;;;0.06;100.00;97976.53;4961912;28;20274;-73
2024/02/03 03:31:47;;;;;;;23.77;12.65;;;;;;;-0.54;100.00;97981.44;4995011;28;20041;-72
2024/02/03 03:34:13;;;;;;;23.35;13.82;;;;;;;-0.59;100.00;97985.72;4989257;28;20053;-73
2024/02/03 03:36:38;;;;;;;23.95;12.85;;;;;;;-0.57;100.00;97985.47;5009810;28;20046;-72
2024/02/03 03:39:04;;;;;;;24.15;12.48;;;;;;;-0.65;100.00;97988.66;5001731;28;20057;-71
2024/02/03 03:41:29;;;;;;;20.88;12.05;;;;;;;-0.71;100.00;97987.81;4979303;28;20069;-71
2024/02/03 03:43:55;;;;;;;20.50;11.48;;;;;;;-0.76;100.00;97990.50;5010409;28;20044;-71
2024/02/03 03:46:20;;;;;;;24.77;11.95;;;;;;;-0.80;100.00;97984.81;4978045;28;20483;-72
2024/02/03 03:48:46;;;;;;;19.15;11.80;;;;;;;-0.86;100.00;97980.50;4993004;28;20046;-74
2024/02/03 03:51:11;;;;;;;19.05;11.35;;;;;;;-0.86;100.00;97975.13;4999835;28;20056;-72
2024/02/03 03:53:36;;;;;;;24.33;13.45;;;;;;;-0.93;100.00;97985.31;4999159;28;20455;-72
2024/02/03 03:56:03;;;;;;;21.38;12.35;;;;;;;-1.11;100.00;97986.53;5005743;28;20046;-69
2024/02/03 03:58:28;;;;;;;25.85;13.25;;;;;;;-1.19;100.00;97987.84;5007010;28;20049;-71
2024/02/03 04:00:53;;;;;;;26.83;13.43;;;;;;;-1.25;100.00;97980.78;5001221;28;20052;-72
2024/02/03 04:03:19;;;;;;;21.33;13.43;;;;;;;-1.25;100.00;97983.47;4992542;28;20340;-72
2024/02/03 04:05:45;;;;;;;21.77;12.18;;;;;;;-1.21;100.00;97984.56;5018037;28;20041;-74
2024/02/03 04:08:10;;;;;;;26.02;13.05;;;;;;;-1.13;100.00;97987.84;4980399;28;20080;-73
2024/02/03 04:10:36;;;;;;;42.67;21.67;;;;;;;-0.96;100.00;97973.16;4967452;28;20041;-73
2024/02/03 04:13:03;;;;;;;29.45;17.20;;;;;;;-0.86;100.00;97977.00;4978203;28;20049;-71
2024/02/03 04:15:29;;;;;;;28.83;17.25;;;;;;;-0.80;100.00;97984.81;4993713;28;20045;-73
2024/02/03 04:17:57;;;;;;;24.35;14.48;;;;;;;-0.73;100.00;97989.97;5015394;28;20042;-73
2024/02/03 04:20:24;;;;;;;28.27;15.82;;;;;;;-0.75;100.00;97985.94;4979395;28;20503;-73
2024/02/03 04:22:49;;;;;;;24.38;13.68;;;;;;;-0.81;100.00;97983.22;5008955;28;20168;-72
2024/02/03 04:25:15;;;;;;;26.20;14.43;;;;;;;-0.86;100.00;97983.19;5011529;28;20842;-72
2024/02/03 04:27:40;;;;;;;24.25;13.80;;;;;;;-0.85;100.00;97984.78;5011792;28;22105;-73
2024/02/03 04:30:06;;;;;;;23.27;13.82;;;;;;;-0.85;100.00;97987.47;5015591;28;20072;-73
2024/02/03 04:32:32;;;;;;;25.65;14.27;;;;;;;-0.58;100.00;97983.84;5003131;28;20045;-73
2024/02/03 04:34:58;;;;;;;37.40;17.73;;;;;;;-0.40;100.00;97975.31;5018901;28;20045;-73
2024/02/03 04:37:23;;;;;;;62.17;23.98;;;;;;;-0.12;100.00;97967.84;4995737;28;20060;-72
2024/02/03 04:39:49;;;;;;;54.67;22.42;;;;;;;0.17;100.00;97968.16;4982750;28;20041;-72
2024/02/03 04:42:14;;;;;;;34.30;16.23;;;;;;;0.02;100.00;97970.84;4982389;28;20049;-73
2024/02/03 04:44:41;;;;;;;22.45;13.55;;;;;;;-0.16;100.00;97972.16;5002586;28;20411;-73
2024/02/03 04:47:07;;;;;;;24.85;13.65;;;;;;;-0.36;100.00;97977.47;4978119;28;20081;-71
2024/02/03 04:49:33;;;;;;;22.48;13.40;;;;;;;-0.68;100.00;97967.69;4991873;28;20053;-73
2024/02/03 04:52:00;;;;;;;21.50;13.02;;;;;;;-1.00;100.00;97976.66;5019637;28;20049;-73
2024/02/03 04:54:27;;;;;;;23.85;12.95;;;;;;;-1.18;100.00;97967.13;4997363;28;20149;-72
2024/02/03 04:56:53;;;;;;;24.45;14.75;;;;;;;-1.25;100.00;97983.47;5001734;28;20116;-72
2024/02/03 04:59:18;;;;;;;21.73;12.82;;;;;;;-1.23;100.00;97985.91;5015802;28;20133;-73
2024/02/03 05:01:44;;;;;;;23.20;12.75;;;;;;;-1.07;100.00;97990.31;4983712;28;20053;-74
2024/02/03 05:04:09;;;;;;;20.38;12.13;;;;;;;-1.08;100.00;97983.34;4968762;28;20080;-73
2024/02/03 05:06:34;;;;;;;23.52;13.38;;;;;;;-1.12;100.00;97976.03;4997892;28;20045;-73
2024/02/03 05:09:00;;;;;;;22.70;14.27;;;;;;;-1.12;100.00;97981.41;5009865;28;20056;-74
2024/02/03 05:11:26;;;;;;;26.52;14.48;;;;;;;-1.09;100.00;97980.91;4980208;28;20506;-74
2024/02/03 05:13:51;;;;;;;22.70;12.82;;;;;;;-1.04;100.00;97981.75;5017767;28;20403;-74
2024/02/03 05:16:17;;;;;;;26.70;13.70;;;;;;;-1.03;100.00;97983.34;5013531;28;20124;-74
2024/02/03 05:18:42;;;;;;;24.77;13.90;;;;;;;-1.04;100.00;97973.66;5018911;28;20034;-73
2024/02/03 05:21:07;;;;;;;29.10;15.35;;;;;;;-1.09;100.00;97981.69;5005907;28;20049;-73
2024/02/03 05:23:33;;;;;;;22.85;13.63;;;;;;;-1.15;100.00;97982.75;5000878;28;20054;-73
2024/02/03 05:25:58;;;;;;;28.85;14.52;;;;;;;-1.24;100.00;97986.97;5014564;28;20118;-73
2024/02/03 05:28:23;;;;;;;26.45;14.00;;;;;;;-1.22;100.00;97992.91;4997319;28;20069;-71
2024/02/03 05:30:49;;;;;;;24.20;14.70;;;;;;;-1.17;100.00;97996.44;5009808;28;20038;-72
2024/02/03 05:33:14;;;;;;;28.45;15.15;;;;;;;-1.19;100.00;97987.00;5018692;28;20171;-72
2024/02/03 05:35:39;;;;;;;24.27;14.52;;;;;;;-1.20;100.00;97988.88;5008859;28;20120;-73
2024/02/03 05:38:05;;;;;;;26.63;13.90;;;;;;;-1.16;100.00;97983.81;5005788;28;20550;-72
2024/02/03 05:40:30;;;;;;;32.35;16.02;;;;;;;-1.14;100.00;97984.34;5015623;28;20053;-73
2024/02/03 05:42:56;;;;;;;27.77;15.32;;;;;;;-1.20;100.00;97977.34;4992746;28;20434;-73
2024/02/03 05:45:22;;;;;;;27.27;13.88;;;;;;;-1.08;100.00;97977.13;4992555;28;20052;-73
2024/02/03 05:47:49;;;;;;;25.55;13.55;;;;;;;-1.13;100.00;97979.78;5013471;28;20053;-72
2024/02/03 05:50:15;;;;;;;22.48;13.00;;;;;;;-1.23;100.00;97973.28;4980068;28;20080;-72
2024/02/03 05:52:40;;;;;;;24.15;13.35;;;;;;;-1.35;100.00;97962.72;5016716;28;20068;-72
2024/02/03 05:55:06;;;;;;;22.88;13.15;;;;;;;-1.42;100.00;97970.19;5004752;28;20073;-73
2024/02/03 05:57:31;;;;;;;26.45;14.30;;;;;;;-1.56;100.00;97977.06;5012935;28;20111;-73
2024/02/03 05:59:57;;;;;;;23.42;13.45;;;;;;;-1.61;100.00;97972.44;5017166;28;20054;-73
2024/02/03 06:02:22;;;;;;;21.52;12.93;;;;;;;-1.49;100.00;97976.88;5004243;28;20364;-73
2024/02/03 06:04:48;;;;;;;24.83;14.75;;;;;;;-1.37;100.00;97972.09;5010108;28;20467;-72
2024/02/03 06:07:13;;;;;;;28.20;15.48;;;;;;;-1.25;100.00;97980.78;5005077;28;20053;-72
2024/02/03 06:09:38;;;;;;;22.35;13.57;;;;;;;-1.16;100.00;97984.59;5008875;28;20038;-72
2024/02/03 06:12:04;;;;;;;26.05;13.93;;;;;;;-1.17;100.00;97983.00;4985380;28;20136;-71
2024/02/03 06:14:30;;;;;;;23.88;14.50;;;;;;;-1.22;100.00;97980.28;5017750;28;20455;-71
2024/02/03 06:16:55;;;;;;;25.95;13.50;;;;;;;-1.46;100.00;97981.69;5006542;28;20038;-71
2024/02/03 06:19:20;;;;;;;24.55;15.02;;;;;;;-1.43;100.00;97990.06;4983354;28;20494;-71
2024/02/03 06:21:47;;;;;;;26.40;14.65;;;;;;;-1.37;100.00;97989.06;5023596;28;20045;-72
2024/02/03 06:24:12;;;;;;;24.15;13.52;;;;;;;-1.33;100.00;97993.88;5002963;28;20049;-72
2024/02/03 06:26:38;;;;;;;28.35;15.60;;;;;;;-1.44;100.00;97984.94;5010607;28;20485;-71
2024/02/03 06:29:05;;;;;;;29.25;15.90;;;;;;;-1.43;100.00;97987.38;4971075;28;20054;-70
2024/02/03 06:31:31;;;;;;;27.40;15.73;;;;;;;-1.55;100.00;97994.78;4984355;28;20562;-73
2024/02/03 06:33:56;;;;;;;30.92;16.10;;;;;;;-1.70;100.00;97989.31;5009719;28;20037;-73
2024/02/03 06:36:22;;;;;;;25.92;13.90;;;;;;;-1.69;100.00;98001.66;5003980;28;20053;-73
2024/02/03 06:38:47;;;;;;;26.63;14.48;;;;;;;-1.73;100.00;98004.03;5001103;28;20464;-73
2024/02/03 06:41:15;;;;;;;28.60;15.20;;;;;;;-1.71;100.00;98001.09;4988902;28;20504;-74
2024/02/03 06:43:43;;;;;;;28.30;14.98;;;;;;;-1.69;100.00;97990.91;4987298;28;20046;-74
2024/02/03 06:46:11;;;;;;;30.07;15.93;;;;;;;-1.73;100.00;98007.56;5003171;28;20444;-72
2024/02/03 06:48:36;;;;;;;33.47;16.52;;;;;;;-1.67;100.00;98004.94;5008422;28;20292;-73
2024/02/03 06:51:01;;;;;;;26.05;15.18;;;;;;;-1.63;100.00;98009.50;4960450;28;20133;-67
2024/02/03 06:53:27;;;;;;;27.98;16.52;;;;;;;-1.57;100.00;98010.38;5000839;28;20050;-73
2024/02/03 06:55:52;;;;;;;31.65;16.42;;;;;;;-1.48;100.00;98006.16;5004370;28;20446;-74
2024/02/03 06:58:18;;;;;;;32.03;16.88;;;;;;;-1.50;100.00;98007.47;5000799;28;20663;-71
2024/02/03 07:00:43;;;;;;;28.88;15.80;;;;;;;-1.39;100.00;98009.16;4993618;28;20096;-73
2024/02/03 07:03:08;;;;;;;28.60;15.65;;;;;;;-1.40;100.00;98007.56;4966695;28;20407;-74
2024/02/03 07:05:34;;;;;;;29.38;15.73;;;;;;;-1.32;100.00;98017.03;5005173;28;20132;-74
2024/02/03 07:08:01;;;;;;;32.17;18.70;;;;;;;-1.29;100.00;98006.56;4998382;28;20459;-74
2024/02/03 07:10:26;;;;;;;28.65;16.15;;;;;;;-1.20;100.00;98018.47;4965877;28;20041;-74
2024/02/03 07:12:52;;;;;;;28.10;15.55;;;;;;;-1.18;100.00;98023.59;4993133;28;20128;-73
2024/02/03 07:15:18;;;;;;;28.80;16.77;;;;;;;-1.19;100.00;98024.66;5001119;28;20124;-74
2024/02/03 07:17:44;;;;;;;29.17;17.27;;;;;;;-1.24;100.00;98021.91;5012053;28;20075;-74
2024/02/03 07:20:10;;;;;;;31.00;17.45;;;;;;;-1.09;100.00;98024.72;5010192;28;20042;-74
2024/02/03 07:22:35;;;;;;;27.17;14.90;;;;;;;-1.02;100.00;98029.88;5005506;28;20099;-73
2024/02/03 07:25:01;;;;;;;24.98;15.32;;;;;;;-0.93;100.00;98032.91;5018219;28;20045;-71
2024/02/03 07:27:26;;;;;;;23.63;13.93;;;;;;;-0.79;100.00;98032.19;5010883;28;20052;-74
2024/02/03 07:29:52;;;;;;;24.70;14.27;;;;;;;-0.72;100.00;98021.19;5025935;28;20056;-73
2024/02/03 07:32:17;;;;;;;23.85;13.55;;;;;;;-0.66;100.00;98038.19;5018539;28;20083;-73
2024/02/03 07:34:42;;;;;;;25.08;13.25;;;;;;;-0.25;100.00;98038.38;5021208;28;20144;-72
2024/02/03 07:37:08;;;;;;;29.25;14.23;;;;;;;0.21;100.00;98030.41;4998255;28;20048;-73
2024/02/03 07:39:35;;;;;;;26.17;14.15;;;;;;;0.88;100.00;98039.38;5002364;28;20041;-72
2024/02/03 07:42:02;;;;;;;25.98;13.48;;;;;;;1.70;100.00;98041.88;4999633;28;20527;-70
2024/02/03 07:44:28;;;;;;;21.70;11.27;;;;;;;2.48;100.00;98024.19;5015566;28;20047;-72
2024/02/03 07:46:53;;;;;;;22.27;10.93;;;;;;;2.81;100.00;98023.66;5001846;28;20044;-72
2024/02/03 07:49:18;;;;;;;14.98;10.00;;;;;;;2.38;100.00;98015.34;5021315;28;20049;-72
2024/02/03 07:51:44;;;;;;;33.47;19.02;;;;;;;1.91;100.00;98017.50;5026098;28;20072;-71
2024/02/03 07:54:09;;;;;;;31.80;18.88;;;;;;;1.94;100.00;98018.84;4996768;28;20053;-71
2024/02/03 07:56:34;;;;;;;30.77;19.20;;;;;;;1.85;100.00;98013.19;5011070;28;20076;-71
2024/02/03 07:59:00;;;;;;;31.05;17.08;;;;;;;3.16;100.00;98008.19;5021006;28;20385;-72
2024/02/03 08:01:26;;;;;;;34.47;19.60;;;;;;;3.88;100.00;97997.34;5005248;28;20045;-72
2024/02/03 08:03:51;;;;;;;31.38;17.95;;;;;;;3.88;100.00;97997.34;5020716;28;20073;-72
2024/02/03 08:06:17;;;;;;;30.08;17.30;;;;;;;4.14;100.00;97997.00;5015141;28;20076;-71
2024/02/03 08:08:42;;;;;;;28.77;16.92;;;;;;;3.83;100.00;97995.53;5017584;28;20095;-72
2024/02/03 08:11:09;;;;;;;24.48;14.90;;;;;;;4.05;100.00;97996.84;5015269;28;20111;-72
2024/02/03 08:13:34;;;;;;;24.98;15.07;;;;;;;4.16;100.00;97998.34;5001038;28;20136;-73
2024/02/03 08:16:00;;;;;;;21.52;14.50;;;;;;;4.96;100.00;97991.09;5009129;28;20224;-71
2024/02/03 08:18:26;;;;;;;24.85;15.88;;;;;;;6.08;100.00;97981.88;4998249;28;20045;-72
2024/02/03 08:20:51;;;;;;;24.75;15.82;;;;;;;6.05;100.00;97989.84;4999236;28;20244;-72
2024/02/03 08:23:16;;;;;;;25.67;14.77;;;;;;;6.15;100.00;97983.38;5009773;28;20492;-72
2024/02/03 08:25:42;;;;;;;21.45;14.43;;;;;;;6.60;100.00;97986.97;5002415;28;20046;-72
2024/02/03 08:28:08;;;;;;;23.15;15.05;;;;;;;7.28;100.00;97987.69;4996589;28;20049;-72
2024/02/03 08:30:33;;;;;;;24.02;14.57;;;;;;;8.11;100.00;97986.19;4985220;28;20318;-73
2024/02/03 08:32:59;;;;;;;21.65;12.88;;;;;;;7.98;100.00;97987.16;5019907;28;20042;-73
2024/02/03 08:35:24;;;;;;;20.13;14.27;;;;;;;7.73;100.00;97983.22;5010657;28;20952;-72
2024/02/03 08:37:50;;;;;;;17.92;12.88;;;;;;;7.62;100.00;97982.72;5010410;28;20061;-73
2024/02/03 08:40:18;;;;;;;19.60;12.00;;;;;;;7.64;100.00;97981.28;5010597;28;20049;-74
2024/02/03 08:42:45;;;;;;;17.20;12.02;;;;;;;7.86;100.00;97982.28;5036220;28;20049;-75
2024/02/03 08:45:10;;;;;;;15.32;10.23;;;;;;;8.83;100.00;97983.97;4995249;28;20204;-74
2024/02/03 08:47:36;;;;;;;18.65;10.98;;;;;;;9.47;100.00;97994.13;5003531;28;20523;-75
2024/02/03 08:50:01;;;;;;;14.93;10.32;;;;;;;9.95;100.00;97994.84;5013730;28;20042;-72
2024/02/03 08:52:27;;;;;;;22.92;14.27;;;;;;;10.41;98.75;97989.59;4992037;28;20720;-73
2024/02/03 08:54:52;;;;;;;36.05;22.05;;;;;;;10.17;95.91;97992.94;5009821;28;20051;-73
2024/02/03 08:57:17;;;;;;;63.33;34.42;;;;;;;10.06;100.00;97992.53;5001922;28;20046;-72
2024/02/03 08:59:43;;;;;;;60.65;33.40;;;;;;;9.86;100.00;97989.41;5013745;28;20088;-72
2024/02/03 09:02:08;;;;;;;27.15;17.08;;;;;;;9.84;100.00;97990.91;4996027;28;20059;-71
2024/02/03 09:04:33;;;;;;;25.27;14.77;;;;;;;9.82;100.00;97990.44;5009013;28;20058;-73
2024/02/03 09:06:59;;;;;;;20.27;14.45;;;;;;;9.01;100.00;97984.75;4993291;28;20056;-72
2024/02/03 09:09:24;;;;;;;17.23;11.73;;;;;;;9.19;100.00;97983.59;4996115;28;20042;-72
2024/02/03 09:11:49;;;;;;;15.80;11.02;;;;;;;9.50;100.00;97979.78;5015091;28;20439;-72
2024/02/03 09:14:15;;;;;;;17.98;12.10;;;;;;;9.82;100.00;97985.75;4999983;28;20049;-71
2024/02/03 09:16:41;;;;;;;19.00;11.52;;;;;;;10.49;100.00;97975.81;5009593;28;20376;-72
2024/02/03 09:19:06;;;;;;;20.42;13.85;;;;;;;10.75;100.00;97974.00;4988656;28;20052;-71
2024/02/03 09:21:32;;;;;;;21.33;14.35;;;;;;;10.97;100.00;97970.88;5002322;28;20050;-74
2024/02/03 09:23:57;;;;;;;21.08;14.18;;;;;;;10.83;100.00;97975.88;5016064;28;20057;-72
2024/02/03 09:26:22;;;;;;;19.77;13.50;;;;;;;12.00;100.00;97975.47;4986101;28;20545;-71
2024/02/03 09:28:50;;;;;;;23.27;15.70;;;;;;;12.94;90.18;97983.69;4993678;28;20061;-72
2024/02/03 09:31:21;;;;;;;12.90;8.50;;;;;;;14.38;77.22;97985.28;4987590;28;20497;-70
2024/02/03 09:33:47;;;;;;;11.00;7.55;;;;;;;14.62;74.06;97991.72;5012701;28;20399;-71
2024/02/03 09:36:12;;;;;;;11.25;7.00;;;;;;;14.45;72.55;97988.22;5009624;28;20045;-71
2024/02/03 09:38:38;;;;;;;14.52;7.53;;;;;;;14.86;71.04;97976.88;5012443;28;20460;-72
2024/02/03 09:41:05;;;;;;;9.43;5.80;;;;;;;14.97;68.64;97974.31;4999734;28;20053;-71
2024/02/03 09:43:31;;;;;;;15.40;7.45;;;;;;;14.69;65.77;97972.56;5008542;28;20504;-72
2024/02/03 09:45:57;;;;;;;13.10;7.00;;;;;;;13.90;69.04;97966.13;5004828;28;20543;-71
2024/02/03 09:48:23;;;;;;;7.93;5.60;;;;;;;14.48;66.50;97975.69;5008683;28;20436;-73
2024/02/03 09:50:50;;;;;;;11.65;5.65;;;;;;;14.60;67.00;97972.78;5004883;28;20100;-72
2024/02/03 09:53:15;;;;;;;10.63;6.65;;;;;;;15.02;68.65;97963.00;5009628;28;20046;-72
2024/02/03 09:55:41;;;;;;;7.72;5.07;;;;;;;15.20;64.43;97974.38;5009896;28;20064;-73
2024/02/03 09:58:07;;;;;;;10.65;5.78;;;;;;;15.78;61.16;97979.72;4979034;28;20128;-73
2024/02/03 10:00:34;;;;;;;9.90;5.78;;;;;;;15.78;62.33;97973.41;5006481;28;20050;-71
2024/02/03 10:02:59;;;;;;;9.45;4.93;;;;;;;15.71;61.93;97979.59;4998744;28;20046;-70
2024/02/03 10:05:29;;;;;;;10.88;5.57;;;;;;;15.52;63.11;97979.66;4999246;28;20539;-71
2024/02/03 10:08:05;;;;;;;8.40;4.25;;;;;;;15.17;61.37;97984.16;5005078;28;20485;-71
2024/02/03 10:10:35;;;;;;;8.18;5.05;;;;;;;14.05;66.76;97977.47;5006803;28;20140;-71
2024/02/03 10:13:07;;;;;;;;;;;;;;;13.59;67.02;97983.44;5002769;28;20077;-70
2024/02/03 10:15:37;;;;;;;9.13;4.75;;;;;;;13.92;67.41;97972.06;5017613;28;19925;-71
2024/02/03 10:18:03;;;;;;;8.95;4.75;;;;;;;14.21;68.89;97972.72;5003377;28;20101;-69
2024/02/03 10:20:29;;;;;;;6.90;4.70;;;;;;;14.24;68.34;97966.50;5007511;28;20125;-72
2024/02/03 10:22:55;;;;;;;7.25;4.10;;;;;;;14.09;65.40;97970.88;5011085;28;20076;-71
2024/02/03 10:25:25;;;;;;;11.32;6.30;;;;;;;13.95;66.17;97965.03;4996241;28;23043;-72
2024/02/03 10:28:03;;;;;;;;;;;;;;;14.06;65.59;97962.53;5008472;28;20042;-72
2024/02/03 10:30:30;;;;;;;7.05;4.03;;;;;;;14.51;63.72;97956.47;5001932;28;19983;-71
2024/02/03 10:33:00;;;;;;;8.32;5.15;;;;;;;14.88;60.52;97961.53;5005769;28;20037;-70
2024/02/03 10:35:30;;;;;;;6.35;4.32;;;;;;;14.51;62.85;97952.88;5001986;28;20666;-71
2024/02/03 10:37:56;;;;;;;6.68;4.15;;;;;;;15.21;60.77;97965.69;4992664;28;20049;-71
2024/02/03 10:40:28;;;;;;;8.23;4.53;;;;;;;15.13;57.09;97960.44;4997897;28;20519;-72
2024/02/03 10:42:54;;;;;;;13.50;4.88;;;;;;;15.83;55.99;97964.81;5021006;28;20468;-71
2024/02/03 10:45:28;;;;;;;12.63;5.28;;;;;;;15.67;56.41;97954.66;4995607;28;20053;-70
2024/02/03 10:47:58;;;;;;;13.07;6.55;;;;;;;15.25;55.36;97955.53;4999376;28;20110;-72
2024/02/03 10:50:34;;;;;;;6.32;4.03;;;;;;;15.13;54.46;97944.66;4976776;28;20211;-70
2024/02/03 10:53:05;;;;;;;5.03;3.50;;;;;;;15.54;53.01;97952.47;4999167;28;20416;-71
2024/02/03 10:55:34;;;;;;;6.85;3.92;;;;;;;15.74;52.89;97940.22;5001999;28;20049;-69
2024/02/03 10:58:01;;;;;;;5.63;3.28;;;;;;;15.54;50.35;97938.66;5010332;28;20447;-69
2024/02/03 11:00:28;;;;;;;12.57;3.95;;;;;;;15.49;51.89;97942.53;5000626;28;20049;-69
2024/02/03 11:02:58;;;;;;;5.40;2.80;;;;;;;14.38;50.20;97934.91;5000250;28;20062;-69
2024/02/03 11:05:27;;;;;;;5.22;3.10;;;;;;;14.35;52.89;97930.91;5010788;28;20695;-69
2024/02/03 11:07:53;;;;;;;6.05;3.20;;;;;;;14.10;50.88;97939.44;5012695;28;20515;-69